Time;durP1;ratioP1;P1;durP2;ratioP2;P2;SDS_P1;SDS_P2;PMS_P1;PMS_P2;Temp;Humidity;BMP_temperature;BMP_pressure;BME280_temperature;BME280_humidity;BME280_pressure;Samples;Min_cycle;Max_cycle;Signal;HPM_P1;HPM_P2
2022/10/24 00:01:24;;;;;;;39.70;37.20;;;;;;;13.63;100.00;100485.19;5072566;28;20879;-49
2022/10/24 00:03:51;;;;;;;39.73;37.63;;;;;;;13.62;100.00;100480.84;5072673;28;20434;-48
2022/10/24 00:06:20;;;;;;;40.10;38.00;;;;;;;13.61;100.00;100483.78;5072442;28;20851;-48
2022/10/24 00:08:48;;;;;;;39.77;37.57;;;;;;;13.60;100.00;100482.13;5071744;28;20480;-48
2022/10/24 00:11:18;;;;;;;40.77;38.30;;;;;;;13.58;100.00;100482.34;5071927;28;20474;-48
2022/10/24 00:13:45;;;;;;;40.53;37.90;;;;;;;13.57;100.00;100488.75;5072208;28;20957;-49
2022/10/24 00:16:13;;;;;;;40.73;38.27;;;;;;;13.55;100.00;100474.75;5072260;28;20461;-51
2022/10/24 00:18:43;;;;;;;39.73;37.53;;;;;;;13.54;100.00;100483.84;5063261;28;20922;-47
2022/10/24 00:21:11;;;;;;;39.87;37.60;;;;;;;13.53;100.00;100481.38;5063986;28;20519;-48
2022/10/24 00:23:39;;;;;;;39.30;37.10;;;;;;;13.54;100.00;100477.66;5072017;28;20435;-46
2022/10/24 00:26:07;;;;;;;39.90;37.37;;;;;;;13.54;100.00;100477.66;5071839;28;20920;-49
2022/10/24 00:28:36;;;;;;;38.60;36.30;;;;;;;13.55;100.00;100488.16;5071361;28;20434;-51
2022/10/24 00:31:05;;;;;;;38.80;36.30;;;;;;;13.55;100.00;100481.97;5059942;28;20862;-50
2022/10/24 00:33:33;;;;;;;38.83;36.63;;;;;;;13.56;100.00;100484.41;5071941;28;20430;-47
2022/10/24 00:36:02;;;;;;;38.90;36.60;;;;;;;13.57;100.00;100486.06;5071372;28;20789;-47
2022/10/24 00:38:29;;;;;;;39.00;36.80;;;;;;;13.59;100.00;100480.50;5071229;28;20500;-50
2022/10/24 00:40:57;;;;;;;39.70;37.50;;;;;;;13.59;100.00;100492.00;5071636;28;21033;-46
2022/10/24 00:43:26;;;;;;;40.57;38.27;;;;;;;13.59;100.00;100489.34;5071628;28;20461;-48
2022/10/24 00:45:55;;;;;;;39.43;37.17;;;;;;;13.60;100.00;100479.44;5071900;28;20441;-49
2022/10/24 00:48:27;;;;;;;39.90;37.40;;;;;;;13.61;100.00;100481.91;5071609;28;20507;-48
2022/10/24 00:50:58;;;;;;;40.23;37.93;;;;;;;13.60;100.00;100485.63;5070914;28;20520;-48
2022/10/24 00:53:31;;;;;;;39.13;36.83;;;;;;;13.58;100.00;100479.69;5065169;28;20431;-47
2022/10/24 00:56:02;;;;;;;39.40;37.03;;;;;;;13.57;100.00;100483.38;5071830;28;20431;-46
2022/10/24 00:58:32;;;;;;;41.33;39.03;;;;;;;13.53;100.00;100482.19;5071116;28;20454;-48
2022/10/24 01:01:00;;;;;;;38.60;36.40;;;;;;;13.53;100.00;100487.53;5088775;22;20995;-46
2022/10/24 01:03:28;;;;;;;40.43;38.00;;;;;;;13.50;100.00;100487.97;5047822;28;20440;-46
2022/10/24 01:06:20;;;;;;;40.40;37.97;;;;;;;13.50;100.00;100484.50;5051961;28;20493;-49
2022/10/24 01:08:58;;;;;;;40.07;37.67;;;;;;;13.49;100.00;100498.94;5050986;28;20485;-45
2022/10/24 01:11:40;;;;;;;39.33;36.97;;;;;;;13.50;100.00;100484.50;5051220;28;20490;-47
2022/10/24 01:14:18;;;;;;;38.80;36.63;;;;;;;13.47;100.00;100482.28;5042206;28;20485;-48
2022/10/24 01:16:50;;;;;;;40.33;38.00;;;;;;;13.44;100.00;100472.78;5051469;28;20924;-46
2022/10/24 01:19:41;;;;;;;39.50;37.40;;;;;;;13.45;100.00;100481.66;5050525;28;20451;-47
2022/10/24 01:22:15;;;;;;;40.00;37.70;;;;;;;13.43;100.00;100475.72;5044491;28;20447;-46
2022/10/24 01:25:04;;;;;;;39.03;36.83;;;;;;;13.40;100.00;100466.25;5051285;28;20492;-47
2022/10/24 01:27:49;;;;;;;39.10;37.00;;;;;;;13.38;100.00;100459.50;5046729;28;20435;-45
2022/10/24 01:30:19;;;;;;;39.00;36.63;;;;;;;13.38;100.00;100464.84;5050883;28;20462;-45
2022/10/24 01:32:55;;;;;;;38.60;36.60;;;;;;;13.38;100.00;100459.50;5050860;28;20987;-46
2022/10/24 01:35:34;;;;;;;39.27;37.17;;;;;;;13.38;100.00;100456.81;5051420;28;20435;-45
2022/10/24 01:38:09;;;;;;;39.60;37.50;;;;;;;13.38;100.00;100452.25;5051533;28;20435;-46
2022/10/24 01:40:44;;;;;;;40.57;38.13;;;;;;;13.38;100.00;100454.13;5050588;28;20451;-46
2022/10/24 01:43:15;;;;;;;39.00;36.90;;;;;;;13.37;100.00;100456.00;5043900;28;20426;-46
2022/10/24 01:45:49;;;;;;;40.13;37.47;;;;;;;13.36;100.00;100456.19;5051498;28;20489;-49
2022/10/24 01:48:21;;;;;;;38.90;36.73;;;;;;;13.34;100.00;100459.13;5048034;28;20476;-46
2022/10/24 01:50:52;;;;;;;39.37;37.10;;;;;;;13.32;100.00;100453.97;5054300;28;20516;-49
2022/10/24 01:53:21;;;;;;;39.97;37.87;;;;;;;13.33;100.00;100446.75;5054975;28;20962;-49
2022/10/24 01:55:53;;;;;;;38.37;36.07;;;;;;;13.31;100.00;100440.81;5055171;28;20526;-48
2022/10/24 01:58:21;;;;;;;40.70;38.37;;;;;;;13.32;100.00;100447.00;5054792;28;20431;-47
2022/10/24 02:00:52;;;;;;;39.57;37.20;;;;;;;13.30;100.00;100439.97;5053899;28;20871;-48
2022/10/24 02:03:24;;;;;;;40.63;37.93;;;;;;;13.30;100.00;100444.53;5042699;28;20431;-47
2022/10/24 02:05:56;;;;;;;40.33;37.93;;;;;;;13.29;100.00;100448.22;5054556;28;20915;-48
2022/10/24 02:08:28;;;;;;;38.47;36.37;;;;;;;13.30;100.00;100447.19;5054953;28;20428;-47
2022/10/24 02:11:00;;;;;;;38.00;35.80;;;;;;;13.28;100.00;100441.25;5054303;28;20447;-44
2022/10/24 02:13:34;;;;;;;39.00;36.40;;;;;;;13.28;100.00;100444.75;5054597;28;20428;-45
2022/10/24 02:16:05;;;;;;;37.70;35.63;;;;;;;13.27;100.00;100443.09;5054738;28;20430;-46
2022/10/24 02:18:33;;;;;;;37.57;35.40;;;;;;;13.26;100.00;100440.66;5054278;28;20427;-49
2022/10/24 02:21:12;;;;;;;40.77;38.40;;;;;;;13.26;100.00;100433.41;5049655;28;20489;-46
2022/10/24 02:23:47;;;;;;;39.57;37.33;;;;;;;13.26;100.00;100435.31;5054573;28;20863;-46
2022/10/24 02:26:26;;;;;;;40.40;38.20;;;;;;;13.25;100.00;100423.78;5054668;28;20423;-45
2022/10/24 02:28:58;;;;;;;40.17;37.93;;;;;;;13.23;100.00;100431.19;5053723;28;20516;-47
2022/10/24 02:31:34;;;;;;;39.47;37.17;;;;;;;13.23;100.00;100422.34;5054095;28;20471;-44
2022/10/24 02:34:05;;;;;;;39.40;36.90;;;;;;;13.20;100.00;100420.91;5054474;28;20497;-47
2022/10/24 02:36:35;;;;;;;39.37;37.13;;;;;;;13.19;100.00;100421.97;5054363;28;20432;-47
2022/10/24 02:39:06;;;;;;;41.57;38.83;;;;;;;13.18;100.00;100416.81;5053667;28;20459;-46
2022/10/24 02:41:37;;;;;;;40.00;37.90;;;;;;;13.14;100.00;100408.41;5054114;28;20447;-46
2022/10/24 02:44:06;;;;;;;40.10;37.67;;;;;;;13.13;100.00;100414.81;5054120;28;20431;-46
2022/10/24 02:46:36;;;;;;;42.03;39.63;;;;;;;13.10;100.00;100412.59;5052107;28;20508;-47
2022/10/24 02:49:05;;;;;;;41.20;39.00;;;;;;;13.08;100.00;100417.31;5053921;28;20514;-46
2022/10/24 02:51:35;;;;;;;43.17;40.67;;;;;;;13.06;100.00;100416.72;5053357;28;20525;-44
2022/10/24 02:54:04;;;;;;;41.07;38.87;;;;;;;13.06;100.00;100411.34;5054251;28;20489;-46
2022/10/24 02:56:31;;;;;;;42.60;40.27;;;;;;;13.05;100.00;100409.72;5053739;28;21005;-48
2022/10/24 02:58:59;;;;;;;42.13;39.93;;;;;;;13.04;100.00;100409.94;5053188;28;20455;-44
2022/10/24 03:01:26;;;;;;;42.70;40.30;;;;;;;13.02;100.00;100404.00;5052447;28;20466;-49
2022/10/24 03:03:56;;;;;;;43.80;41.50;;;;;;;13.00;100.00;100396.19;5053642;28;20443;-46
2022/10/24 03:06:23;;;;;;;42.33;39.90;;;;;;;12.99;100.00;100391.06;5053665;28;20432;-47
2022/10/24 03:08:51;;;;;;;43.63;40.90;;;;;;;12.97;100.00;100393.94;5053230;28;20512;-44
2022/10/24 03:11:19;;;;;;;44.23;42.03;;;;;;;12.94;100.00;100389.03;5053629;28;20517;-48
2022/10/24 03:13:46;;;;;;;43.50;41.20;;;;;;;12.94;100.00;100388.19;5050554;28;20474;-45
2022/10/24 03:16:14;;;;;;;44.07;41.77;;;;;;;12.91;100.00;100394.00;5053440;28;20435;-45
2022/10/24 03:18:41;;;;;;;46.10;43.60;;;;;;;12.89;100.00;100390.72;5053218;28;20839;-47
2022/10/24 03:21:10;;;;;;;46.40;43.93;;;;;;;12.87;100.00;100385.59;5044899;28;21148;-46
2022/10/24 03:23:38;;;;;;;46.20;43.70;;;;;;;12.85;100.00;100382.31;5053329;28;20431;-45
2022/10/24 03:26:06;;;;;;;46.33;44.00;;;;;;;12.84;100.00;100374.53;5053295;28;20493;-44
2022/10/24 03:28:34;;;;;;;48.63;45.80;;;;;;;12.81;100.00;100381.13;5052916;28;20432;-44
2022/10/24 03:31:01;;;;;;;49.13;46.43;;;;;;;12.80;100.00;100381.34;5052945;28;20456;-46
2022/10/24 03:33:29;;;;;;;50.57;48.10;;;;;;;12.76;100.00;100371.06;5053287;28;20475;-45
2022/10/24 03:35:57;;;;;;;53.77;51.10;;;;;;;12.75;100.00;100373.97;5052948;28;20489;-46
2022/10/24 03:38:26;;;;;;;53.97;51.03;;;;;;;12.72;100.00;100364.50;5053005;28;20427;-47
2022/10/24 03:40:53;;;;;;;52.77;50.27;;;;;;;12.71;100.00;100365.56;5052200;28;20475;-46
2022/10/24 03:43:21;;;;;;;55.80;52.20;;;;;;;12.68;100.00;100362.50;5053019;28;20427;-46
2022/10/24 03:45:48;;;;;;;57.10;54.03;;;;;;;12.67;100.00;100367.03;5053066;28;20493;-47
2022/10/24 03:48:16;;;;;;;56.40;52.80;;;;;;;12.66;100.00;100364.59;5052874;28;20443;-47
2022/10/24 03:50:43;;;;;;;56.93;53.70;;;;;;;12.65;100.00;100374.47;5051657;28;20524;-44
2022/10/24 03:53:11;;;;;;;57.83;54.67;;;;;;;12.63;100.00;100381.09;5051806;28;20471;-46
2022/10/24 03:55:40;;;;;;;62.70;59.70;;;;;;;12.62;100.00;100377.59;5052500;28;20948;-45
2022/10/24 03:58:08;;;;;;;58.73;56.13;;;;;;;12.61;100.00;100373.25;5052767;28;20899;-45
2022/10/24 04:00:39;;;;;;;59.73;56.93;;;;;;;12.61;100.00;100375.94;5051634;28;20558;-46
2022/10/24 04:03:08;;;;;;;60.97;58.20;;;;;;;12.60;100.00;100366.25;5052583;28;20420;-45
2022/10/24 04:05:36;;;;;;;63.07;60.27;;;;;;;12.61;100.00;100361.75;5052439;28;20462;-45
2022/10/24 04:08:04;;;;;;;65.40;62.47;;;;;;;12.60;100.00;100366.25;5052510;28;20431;-44
2022/10/24 04:10:31;;;;;;;63.67;60.60;;;;;;;12.60;100.00;100360.13;5051010;28;20463;-46
2022/10/24 04:13:00;;;;;;;64.13;61.13;;;;;;;12.60;100.00;100349.41;5051873;28;20560;-47
2022/10/24 04:15:28;;;;;;;65.47;62.17;;;;;;;12.59;100.00;100350.44;5052522;28;20443;-46
2022/10/24 04:17:55;;;;;;;66.70;63.67;;;;;;;12.57;100.00;100344.50;5052337;28;20431;-44
2022/10/24 04:20:23;;;;;;;67.10;64.20;;;;;;;12.54;100.00;100343.09;5049894;28;20459;-46
2022/10/24 04:22:50;;;;;;;68.53;65.40;;;;;;;12.53;100.00;100340.63;5052378;28;20481;-48
2022/10/24 04:25:18;;;;;;;70.40;67.30;;;;;;;12.51;100.00;100342.72;5052200;28;20465;-46
2022/10/24 04:27:46;;;;;;;73.43;69.73;;;;;;;12.50;100.00;100346.41;5052422;28;20500;-44
2022/10/24 04:30:15;;;;;;;72.50;69.30;;;;;;;12.49;100.00;100348.25;5051603;28;20517;-47
2022/10/24 04:32:43;;;;;;;73.97;70.77;;;;;;;12.49;100.00;100348.25;5052017;28;20477;-45
2022/10/24 04:35:12;;;;;;;75.50;72.20;;;;;;;12.47;100.00;100349.53;5051975;28;20431;-47
2022/10/24 04:37:40;;;;;;;76.40;72.60;;;;;;;12.46;100.00;100348.69;5052083;28;20431;-45
2022/10/24 04:40:08;;;;;;;73.60;70.50;;;;;;;12.46;100.00;100343.34;5051261;28;21066;-46
2022/10/24 04:42:36;;;;;;;74.97;71.43;;;;;;;12.45;100.00;100343.59;5052124;28;20447;-48
2022/10/24 04:45:04;;;;;;;76.30;72.53;;;;;;;12.46;100.00;100354.03;5052048;28;20431;-46
2022/10/24 04:47:33;;;;;;;75.63;71.93;;;;;;;12.45;100.00;100349.75;5051896;28;20431;-46
2022/10/24 04:50:01;;;;;;;75.93;72.33;;;;;;;12.46;100.00;100347.88;5051459;28;20515;-47
2022/10/24 04:52:28;;;;;;;75.73;72.33;;;;;;;12.44;100.00;100339.25;5051472;28;20463;-47
2022/10/24 04:54:56;;;;;;;76.87;72.63;;;;;;;12.43;100.00;100349.13;5051866;28;20434;-47
2022/10/24 04:57:23;;;;;;;73.23;69.63;;;;;;;12.44;100.00;100336.59;5052017;28;20492;-48
2022/10/24 04:59:51;;;;;;;74.00;70.33;;;;;;;12.43;100.00;100349.13;5051125;28;20975;-49
2022/10/24 05:02:19;;;;;;;77.07;72.43;;;;;;;12.45;100.00;100343.59;5051260;28;20466;-48
2022/10/24 05:04:48;;;;;;;74.23;70.93;;;;;;;12.46;100.00;100343.34;5051647;28;20435;-47
2022/10/24 05:07:16;;;;;;;78.13;74.60;;;;;;;12.45;100.00;100344.41;5049687;28;20435;-44
2022/10/24 05:09:43;;;;;;;78.17;74.70;;;;;;;12.44;100.00;100342.75;5051026;28;21049;-46
2022/10/24 05:12:11;;;;;;;86.27;82.73;;;;;;;12.45;100.00;100338.22;5051290;28;20485;-44
2022/10/24 05:14:38;;;;;;;79.60;76.00;;;;;;;12.43;100.00;100337.59;5044336;28;20475;-44
2022/10/24 05:17:06;;;;;;;79.27;75.37;;;;;;;12.44;100.00;100342.75;5044392;28;20485;-45
2022/10/24 05:19:35;;;;;;;81.83;78.23;;;;;;;12.43;100.00;100330.41;5050112;28;20451;-46
2022/10/24 05:22:04;;;;;;;79.07;75.60;;;;;;;12.42;100.00;100328.78;5044071;28;20522;-44
2022/10/24 05:24:36;;;;;;;82.50;78.87;;;;;;;12.41;100.00;100329.81;5051669;28;20431;-45
2022/10/24 05:27:04;;;;;;;81.23;77.63;;;;;;;12.43;100.00;100332.25;5051541;28;20435;-44
2022/10/24 05:29:32;;;;;;;81.00;77.37;;;;;;;12.43;100.00;100334.94;5050934;28;20881;-45
2022/10/24 05:31:59;;;;;;;81.17;77.27;;;;;;;12.44;100.00;100339.25;5050805;28;21013;-45
2022/10/24 05:34:27;;;;;;;82.53;78.57;;;;;;;12.46;100.00;100339.84;5051166;28;20498;-46
2022/10/24 05:36:55;;;;;;;80.47;76.70;;;;;;;12.46;100.00;100340.66;5051426;28;20436;-44
2022/10/24 05:39:24;;;;;;;81.10;77.40;;;;;;;12.48;100.00;100335.94;5050930;28;20463;-47
2022/10/24 05:41:51;;;;;;;77.87;74.57;;;;;;;12.51;100.00;100335.50;5050765;28;20940;-44
2022/10/24 05:44:22;;;;;;;79.37;75.63;;;;;;;12.56;100.00;100340.19;5051232;28;20438;-45
2022/10/24 05:46:49;;;;;;;76.83;73.13;;;;;;;12.59;100.00;100331.72;5050948;28;20440;-46
2022/10/24 05:49:17;;;;;;;73.53;69.83;;;;;;;12.62;100.00;100340.13;5050858;28;20466;-45
2022/10/24 05:51:44;;;;;;;74.33;70.83;;;;;;;12.66;100.00;100343.19;5050998;28;20455;-44
2022/10/24 05:54:12;;;;;;;76.03;72.20;;;;;;;12.70;100.00;100341.69;5051000;28;20532;-44
2022/10/24 05:56:46;;;;;;;75.77;71.70;;;;;;;12.71;100.00;100338.81;5051082;28;20447;-44
2022/10/24 05:59:14;;;;;;;77.40;73.90;;;;;;;12.73;100.00;100334.06;5050506;28;20854;-44
2022/10/24 06:01:41;;;;;;;72.63;69.17;;;;;;;12.72;100.00;100340.44;5050415;28;20455;-44
2022/10/24 06:04:10;;;;;;;78.17;74.27;;;;;;;12.73;100.00;100338.59;5051252;28;20431;-44
2022/10/24 06:06:41;;;;;;;72.73;69.10;;;;;;;12.73;100.00;100335.91;5051140;28;20459;-46
2022/10/24 06:09:09;;;;;;;72.47;68.83;;;;;;;12.71;100.00;100336.16;5050631;28;20517;-46
2022/10/24 06:11:37;;;;;;;72.67;69.37;;;;;;;12.70;100.00;100322.97;5047743;28;20864;-46
2022/10/24 06:14:06;;;;;;;74.30;70.50;;;;;;;12.69;100.00;100332.06;5051043;28;20840;-48
2022/10/24 06:16:33;;;;;;;74.67;71.17;;;;;;;12.67;100.00;100331.44;5051029;28;20435;-46
2022/10/24 06:19:01;;;;;;;75.37;71.57;;;;;;;12.65;100.00;100337.03;5050723;28;20462;-46
2022/10/24 06:21:28;;;;;;;77.10;73.70;;;;;;;12.64;100.00;100332.69;5048789;28;20967;-46
2022/10/24 06:23:57;;;;;;;80.77;77.00;;;;;;;12.64;100.00;100329.19;5050839;28;20856;-51
2022/10/24 06:26:24;;;;;;;78.73;75.10;;;;;;;12.62;100.00;100342.00;5050969;28;20439;-47
2022/10/24 06:28:53;;;;;;;76.17;72.57;;;;;;;12.63;100.00;100335.59;5050521;28;20524;-46
2022/10/24 06:31:24;;;;;;;72.47;69.33;;;;;;;12.64;100.00;100337.22;5050745;28;20504;-46
2022/10/24 06:33:52;;;;;;;72.70;69.17;;;;;;;12.64;100.00;100331.88;5051834;28;20474;-49
2022/10/24 06:36:20;;;;;;;73.57;70.23;;;;;;;12.65;100.00;100323.66;5054353;28;20955;-44
2022/10/24 06:38:48;;;;;;;71.77;68.37;;;;;;;12.67;100.00;100332.25;5053596;28;20431;-49
2022/10/24 06:41:16;;;;;;;70.87;67.47;;;;;;;12.67;100.00;100326.91;5054133;28;20459;-46
2022/10/24 06:43:44;;;;;;;69.40;65.90;;;;;;;12.68;100.00;100327.72;5051181;28;20435;-48
2022/10/24 06:46:14;;;;;;;66.80;63.60;;;;;;;12.68;100.00;100325.88;5054407;28;20485;-46
2022/10/24 06:48:44;;;;;;;64.93;61.60;;;;;;;12.69;100.00;100327.50;5042404;28;20432;-46
2022/10/24 06:51:14;;;;;;;61.83;58.83;;;;;;;12.70;100.00;100337.16;5053837;28;20459;-46
2022/10/24 06:53:42;;;;;;;59.97;56.63;;;;;;;12.73;100.00;100328.69;5054000;28;20975;-46
2022/10/24 06:56:10;;;;;;;57.30;54.10;;;;;;;12.77;100.00;100332.59;5053698;28;20493;-47
2022/10/24 06:58:38;;;;;;;53.33;50.63;;;;;;;12.85;100.00;100325.28;5053856;28;20522;-48
2022/10/24 07:01:11;;;;;;;53.90;50.97;;;;;;;12.87;100.00;100325.91;5078409;22;20516;-48
2022/10/24 07:03:39;;;;;;;50.67;47.13;;;;;;;12.90;100.00;100328.97;5004645;28;20457;-48
2022/10/24 07:06:12;;;;;;;47.93;45.03;;;;;;;13.01;100.00;100330.91;5005650;28;20491;-46
2022/10/24 07:08:40;;;;;;;44.70;41.97;;;;;;;13.11;100.00;100335.78;5013905;28;20429;-46
2022/10/24 07:11:07;;;;;;;42.93;40.13;;;;;;;13.32;100.00;100335.31;5012949;28;20429;-48
2022/10/24 07:13:35;;;;;;;40.30;38.00;;;;;;;13.50;100.00;100331.81;5013935;28;20437;-45
2022/10/24 07:16:02;;;;;;;40.70;38.20;;;;;;;13.55;100.00;100327.41;5013708;28;20503;-48
2022/10/24 07:18:30;;;;;;;39.40;37.00;;;;;;;13.66;100.00;100340.03;5013422;28;20520;-47
2022/10/24 07:21:01;;;;;;;37.80;35.43;;;;;;;13.74;100.00;100338.91;5012106;28;20441;-45
2022/10/24 07:23:30;;;;;;;36.23;34.00;;;;;;;13.82;100.00;100343.97;5013642;28;20429;-46
2022/10/24 07:26:01;;;;;;;36.97;34.77;;;;;;;13.85;100.00;100338.16;5013820;28;20433;-48
2022/10/24 07:28:29;;;;;;;39.63;37.03;;;;;;;13.91;100.00;100344.44;5013288;28;20492;-45
2022/10/24 07:30:57;;;;;;;39.77;37.17;;;;;;;13.99;100.00;100346.81;5013284;28;20468;-50
2022/10/24 07:33:25;;;;;;;37.83;35.50;;;;;;;14.05;100.00;100352.06;5011926;28;20507;-48
2022/10/24 07:35:52;;;;;;;38.17;35.77;;;;;;;14.12;100.00;100346.63;5006005;28;20527;-48
2022/10/24 07:38:20;;;;;;;37.80;35.30;;;;;;;14.18;100.00;100349.22;5012091;28;20487;-47
2022/10/24 07:40:50;;;;;;;38.67;35.90;;;;;;;14.25;100.00;100349.09;5012556;28;20515;-51
2022/10/24 07:43:17;;;;;;;37.60;35.30;;;;;;;14.39;100.00;100347.88;5013144;28;20511;-45
2022/10/24 07:45:45;;;;;;;36.40;33.63;;;;;;;14.53;100.00;100348.47;5005885;28;21004;-45
2022/10/24 07:48:18;;;;;;;36.60;34.00;;;;;;;14.68;100.00;100338.09;5013271;28;20448;-46
2022/10/24 07:50:47;;;;;;;37.07;34.10;;;;;;;14.78;100.00;100335.66;5012486;28;20990;-48
2022/10/24 07:53:15;;;;;;;37.13;34.20;;;;;;;14.89;100.00;100338.34;5012866;28;20457;-48
2022/10/24 07:55:44;;;;;;;36.50;34.00;;;;;;;15.00;100.00;100335.88;5013250;28;20476;-51
2022/10/24 07:58:13;;;;;;;36.20;33.90;;;;;;;15.18;100.00;100328.50;5013263;28;20426;-45
2022/10/24 08:00:41;;;;;;;37.87;35.10;;;;;;;15.37;100.00;100329.97;5012300;28;20519;-48
2022/10/24 08:03:12;;;;;;;36.80;34.33;;;;;;;15.59;100.00;100319.41;5012731;28;20472;-48
2022/10/24 08:05:40;;;;;;;37.70;35.40;;;;;;;15.66;100.00;100320.09;5012891;28;20433;-47
2022/10/24 08:08:08;;;;;;;37.83;35.10;;;;;;;15.78;100.00;100320.88;5013190;28;20864;-48
2022/10/24 08:10:55;;;;;;;37.83;35.10;;;;;;;15.88;100.00;100321.06;5012438;28;20873;-48
2022/10/24 08:13:24;;;;;;;37.33;34.83;;;;;;;16.00;100.00;100319.13;5012585;28;20452;-47
2022/10/24 08:15:52;;;;;;;36.60;34.20;;;;;;;16.05;100.00;100319.22;5012728;28;20543;-48
2022/10/24 08:18:20;;;;;;;37.17;34.30;;;;;;;15.89;100.00;100309.22;5011128;28;20799;-47
2022/10/24 08:20:56;;;;;;;37.17;34.80;;;;;;;15.86;100.00;100325.06;5003576;28;20465;-49
2022/10/24 08:23:24;;;;;;;36.80;34.57;;;;;;;16.04;100.00;100316.75;5011390;28;20944;-45
2022/10/24 08:25:52;;;;;;;36.47;33.90;;;;;;;16.24;100.00;100321.69;5012489;28;20949;-47
2022/10/24 08:28:22;;;;;;;37.37;35.07;;;;;;;16.37;100.00;100318.66;5012613;28;20433;-49
2022/10/24 08:30:58;;;;;;;36.57;33.73;;;;;;;16.46;100.00;100328.78;5011585;28;20508;-45
2022/10/24 08:33:26;;;;;;;38.47;34.93;;;;;;;16.57;100.00;100332.50;5012172;28;20479;-46
2022/10/24 08:35:58;;;;;;;37.17;34.83;;;;;;;16.61;100.00;100317.47;5012653;28;20507;-45
2022/10/24 08:38:26;;;;;;;36.20;34.10;;;;;;;16.61;100.00;100322.06;5012372;28;20919;-49
2022/10/24 08:40:54;;;;;;;35.97;33.67;;;;;;;16.71;100.00;100331.09;5011829;28;20854;-47
2022/10/24 08:43:22;;;;;;;36.60;34.50;;;;;;;16.77;100.00;100318.50;5012237;28;20461;-49
2022/10/24 08:45:58;;;;;;;37.10;34.53;;;;;;;16.83;100.00;100323.72;5012254;28;20950;-46
2022/10/24 08:48:32;;;;;;;35.73;33.50;;;;;;;16.91;100.00;100322.47;5011997;28;20429;-50
2022/10/24 08:51:07;;;;;;;37.00;34.63;;;;;;;16.93;100.00;100304.22;5012089;28;20449;-46
2022/10/24 08:53:35;;;;;;;36.53;34.23;;;;;;;16.90;100.00;100297.44;5012099;28;20782;-48
2022/10/24 08:56:04;;;;;;;36.90;34.70;;;;;;;16.96;100.00;100301.00;5011792;28;20477;-50
2022/10/24 08:58:35;;;;;;;38.33;36.00;;;;;;;17.02;100.00;100298.13;5011438;28;20930;-48
2022/10/24 09:01:12;;;;;;;36.23;34.03;;;;;;;17.03;100.00;100299.75;5011547;28;20918;-47
2022/10/24 09:03:44;;;;;;;36.40;34.50;;;;;;;17.11;100.00;100295.84;5012117;28;20902;-46
2022/10/24 09:06:30;;;;;;;35.67;33.37;;;;;;;17.17;100.00;100299.41;5011782;28;20444;-46
2022/10/24 09:08:59;;;;;;;36.37;34.37;;;;;;;17.24;100.00;100292.75;5011716;28;20861;-47
2022/10/24 09:11:36;;;;;;;37.10;34.47;;;;;;;17.32;100.00;100299.59;5011552;28;20453;-46
2022/10/24 09:14:11;;;;;;;35.97;33.80;;;;;;;17.09;100.00;100289.84;5011845;28;20440;-50
2022/10/24 09:16:41;;;;;;;36.10;34.00;;;;;;;16.93;100.00;100299.63;5011684;28;20530;-45
2022/10/24 09:19:14;;;;;;;34.50;32.60;;;;;;;16.85;100.00;100301.91;5010971;28;21047;-51
2022/10/24 09:21:44;;;;;;;34.57;32.53;;;;;;;16.94;100.00;100298.56;5007873;28;21027;-46
2022/10/24 09:24:23;;;;;;;34.67;32.80;;;;;;;17.28;100.00;100295.75;5011892;28;20433;-48
2022/10/24 09:26:51;;;;;;;35.90;33.90;;;;;;;17.40;100.00;100285.66;5011405;28;20432;-47
2022/10/24 09:29:18;;;;;;;33.90;31.80;;;;;;;17.52;100.00;100289.84;5011167;28;21036;-48
2022/10/24 09:31:48;;;;;;;34.13;32.07;;;;;;;17.60;100.00;100289.44;5011133;28;20465;-48
2022/10/24 09:34:17;;;;;;;36.20;33.93;;;;;;;17.60;100.00;100294.00;5011925;28;20432;-47
2022/10/24 09:36:45;;;;;;;34.33;32.20;;;;;;;17.68;100.00;100299.75;5011552;28;20472;-50
2022/10/24 09:39:33;;;;;;;33.63;31.93;;;;;;;17.98;100.00;100290.38;5011245;28;20522;-48
2022/10/24 09:42:01;;;;;;;34.27;32.10;;;;;;;18.13;100.00;100288.59;5007776;28;20452;-47
2022/10/24 09:44:39;;;;;;;35.13;33.37;;;;;;;18.27;100.00;100298.97;5011580;28;20440;-51
2022/10/24 09:47:23;;;;;;;35.20;33.10;;;;;;;18.20;100.00;100299.19;5011660;28;20452;-49
2022/10/24 09:49:52;;;;;;;33.73;31.67;;;;;;;18.09;100.00;100292.06;5011227;28;20468;-47
2022/10/24 09:52:24;;;;;;;33.80;31.90;;;;;;;18.03;100.00;100291.22;5011670;28;20453;-46
2022/10/24 09:55:07;;;;;;;31.87;30.07;;;;;;;17.97;100.00;100300.34;5007735;28;20467;-49
2022/10/24 09:57:39;;;;;;;32.57;30.00;;;;;;;18.08;100.00;100307.44;5011544;28;20421;-49
2022/10/24 10:00:21;;;;;;;32.30;30.60;;;;;;;18.18;100.00;100301.31;5011009;28;20511;-47
2022/10/24 10:03:01;;;;;;;31.00;29.60;;;;;;;18.27;100.00;100297.09;5010439;28;20457;-49
2022/10/24 10:05:43;;;;;;;31.27;29.77;;;;;;;18.30;100.00;100306.56;5011448;28;20483;-46
2022/10/24 10:08:15;;;;;;;31.53;29.97;;;;;;;18.30;100.00;100303.84;5011378;28;20433;-46
2022/10/24 10:10:43;;;;;;;30.37;28.97;;;;;;;18.29;100.00;100308.44;5014399;28;20531;-48
2022/10/24 10:13:22;;;;;;;30.00;28.60;;;;;;;18.32;100.00;100307.91;5014671;28;20506;-47
2022/10/24 10:15:53;;;;;;;29.10;27.90;;;;;;;18.30;100.00;100306.56;5013549;28;20504;-48
2022/10/24 10:18:32;;;;;;;29.13;27.67;;;;;;;18.28;100.00;100303.31;5014878;28;20429;-49
2022/10/24 10:21:07;;;;;;;30.70;28.70;;;;;;;18.38;100.00;100296.09;5012812;28;20440;-52
2022/10/24 10:23:38;;;;;;;29.33;27.50;;;;;;;18.42;100.00;100299.09;5014820;28;20780;-46
2022/10/24 10:26:26;;;;;;;29.33;27.87;;;;;;;18.39;100.00;100302.31;5014899;28;20432;-50
2022/10/24 10:28:59;;;;;;;30.43;27.93;;;;;;;18.47;100.00;100299.13;5006856;28;20531;-48
2022/10/24 10:31:34;;;;;;;28.10;26.60;;;;;;;18.54;100.00;100302.47;5014476;28;20452;-52
2022/10/24 10:34:15;;;;;;;27.90;26.57;;;;;;;18.57;100.00;100305.47;5014570;28;20439;-50
2022/10/24 10:37:02;;;;;;;26.67;25.57;;;;;;;18.69;100.00;100299.88;5013730;28;20472;-48
2022/10/24 10:39:47;;;;;;;26.77;25.40;;;;;;;18.68;99.40;100288.25;5014057;28;20877;-50
2022/10/24 10:42:21;;;;;;;25.87;24.60;;;;;;;18.77;99.22;100296.66;5013992;28;20441;-48
2022/10/24 10:45:03;;;;;;;26.67;25.27;;;;;;;18.84;99.31;100301.84;5014243;28;20992;-50
2022/10/24 10:47:39;;;;;;;25.07;23.93;;;;;;;18.82;97.57;100295.91;5014439;28;20421;-49
2022/10/24 10:50:22;;;;;;;25.10;23.70;;;;;;;18.82;97.20;100306.69;5013834;28;20499;-46
2022/10/24 10:52:51;;;;;;;23.83;22.83;;;;;;;18.89;99.04;100302.69;5008532;28;20453;-52
2022/10/24 10:55:27;;;;;;;23.83;22.83;;;;;;;18.83;96.85;100298.31;5014034;28;20499;-50
2022/10/24 10:58:04;;;;;;;22.07;21.07;;;;;;;18.75;95.83;100301.53;5014293;28;20471;-46
2022/10/24 11:00:47;;;;;;;23.27;22.17;;;;;;;18.73;96.33;100306.34;5007288;28;20472;-51
2022/10/24 11:03:23;;;;;;;23.70;22.60;;;;;;;18.71;95.33;100306.63;5009711;28;20456;-45
2022/10/24 11:06:05;;;;;;;23.13;21.77;;;;;;;18.73;96.63;100309.06;5014246;28;20873;-49
2022/10/24 11:08:58;;;;;;;22.10;21.20;;;;;;;18.73;97.09;100306.34;5013393;28;20461;-50
2022/10/24 11:11:31;;;;;;;22.07;20.97;;;;;;;18.68;97.02;100300.94;5013458;28;20449;-50
2022/10/24 11:14:04;;;;;;;21.17;20.23;;;;;;;18.57;96.74;100304.63;5013950;28;20937;-49
2022/10/24 11:16:32;;;;;;;20.90;19.50;;;;;;;18.51;96.38;100306.50;5013851;28;20472;-51
2022/10/24 11:19:04;;;;;;;20.17;19.33;;;;;;;18.56;97.79;100305.69;5013452;28;20491;-51